»·PEaware :: N147AT KSBA-KLGB

N147AT :: KSBA-KLGB

FLIGHT INFORMATION

Flight Status: Arrived
Operator: Privately registered:
United States
More flights under this callsign
Pilot: Anonymous 18613 (18613)
Aircraft: CESSNA 172 SKYHAWK
(C172)
More flights by this aircraft type
Origin: KSBA Santa Barbara Mun
United States
Destination: KLGB Long Beach
United States
More flights between these airports :: More routes between these airports
Route: +KWANG5 KWANG CMA VNY V186 ADAMM V394 SLI
File this flight plan on PilotEdge
Remarks:
Altitude:
(Current/Filed)
5,000ft
Speed:
(Current/Filed)
115kts
Departed: 10-Sep-18 09:21 AM
Arrived: 10-Sep-18 10:35 AM
Distance/Time
Traveled:
92nm/1:14
Distance/Time
To Go:
Arrived

Flight Plot

Page will automatically refresh every two minutes.

Flight plan parsing failed; only flown route is shown


Map Options




Map Legend


Flown Route
Filed Route
Departure Airport
Arrival Airport
Navaid (VOR, NDB)
Fix

Horizontal Profiles

Position Reports

Time Latitude Longitude Heading Altitude Ground
Speed
10-Sep-18 08:50 34.422664 -119.835593 340 17ft 0kts
10-Sep-18 08:51 34.422664 -119.835593 340 17ft 0kts
10-Sep-18 08:52 34.422664 -119.835593 340 17ft 0kts
10-Sep-18 08:53 34.422664 -119.835593 340 17ft 0kts
10-Sep-18 08:54 34.422664 -119.835593 340 17ft 0kts
10-Sep-18 08:55 34.422664 -119.835593 340 17ft 0kts
10-Sep-18 08:56 34.422664 -119.835593 340 17ft 0kts
10-Sep-18 08:57 34.422664 -119.835593 340 17ft 0kts
10-Sep-18 08:58 34.422664 -119.835593 340 17ft 0kts
10-Sep-18 08:59 34.422664 -119.835593 340 17ft 0kts
10-Sep-18 09:00 34.422664 -119.835593 340 17ft 0kts
10-Sep-18 09:01 34.422664 -119.835593 340 17ft 0kts
10-Sep-18 09:02 34.422664 -119.835593 340 17ft 0kts
10-Sep-18 09:03 34.422664 -119.835593 340 17ft 0kts
10-Sep-18 09:04 34.422664 -119.835593 340 17ft 0kts
10-Sep-18 09:05 34.422664 -119.835593 340 17ft 0kts
10-Sep-18 09:06 34.422664 -119.835593 340 17ft 0kts
10-Sep-18 09:07 34.422664 -119.835593 340 17ft 0kts
10-Sep-18 09:08 34.422664 -119.835593 340 17ft 0kts
10-Sep-18 09:09 34.422664 -119.835593 340 17ft 0kts
10-Sep-18 09:10 34.422664 -119.835593 340 17ft 0kts
10-Sep-18 09:11 34.422664 -119.835593 340 17ft 0kts
10-Sep-18 09:12 34.422664 -119.835593 340 17ft 0kts
10-Sep-18 09:13 34.422664 -119.835593 340 17ft 0kts
10-Sep-18 09:14 34.422766 -119.836593 281 17ft 10kts
10-Sep-18 09:15 34.425082 -119.837848 348 17ft 10kts
10-Sep-18 09:16 34.428035 -119.838771 346 17ft 14kts
10-Sep-18 09:17 34.430669 -119.839838 255 17ft 0kts
10-Sep-18 09:18 34.430669 -119.839838 255 17ft 0kts
10-Sep-18 09:19 34.430669 -119.839838 255 17ft 0kts
10-Sep-18 09:20 34.430669 -119.839838 255 17ft 0kts
10-Sep-18 09:21 34.430669 -119.839838 255 17ft 0kts
10-Sep-18 09:22 34.430669 -119.839838 255 17ft 0kts
10-Sep-18 09:23 34.427877 -119.839455 166 17ft 62kts
10-Sep-18 09:24 34.413617 -119.830253 55 657ft 66kts
10-Sep-18 09:25 34.418087 -119.808591 105 1265ft 83kts
10-Sep-18 09:26 34.409832 -119.780952 107 1921ft 86kts
10-Sep-18 09:27 34.400918 -119.754762 108 2615ft 81kts
10-Sep-18 09:28 34.392289 -119.730966 108 3301ft 72kts
10-Sep-18 09:29 34.384696 -119.710401 107 3836ft 74kts
10-Sep-18 09:30 34.374686 -119.684576 109 4270ft 91kts
10-Sep-18 09:31 34.363919 -119.656129 107 4770ft 93kts
10-Sep-18 09:32 34.351653 -119.625824 110 5016ft 114kts
10-Sep-18 09:33 34.337088 -119.589174 111 5020ft 122kts
10-Sep-18 09:34 34.322419 -119.552122 110 5020ft 122kts
10-Sep-18 09:35 34.307985 -119.515505 110 5021ft 122kts
10-Sep-18 09:36 34.299243 -119.476977 91 5023ft 119kts
10-Sep-18 09:37 34.293985 -119.437082 96 5024ft 120kts
10-Sep-18 09:38 34.286502 -119.397416 99 5026ft 121kts
10-Sep-18 09:39 34.277922 -119.357859 100 5028ft 121kts
10-Sep-18 09:40 34.269068 -119.319422 101 5031ft 122kts
10-Sep-18 09:41 34.259380 -119.279947 102 5034ft 122kts
10-Sep-18 09:42 34.249924 -119.240633 102 5037ft 122kts
10-Sep-18 09:43 34.240342 -119.201111 102 5040ft 122kts
10-Sep-18 09:44 34.228926 -119.162820 104 5042ft 123kts
10-Sep-18 09:45 34.219507 -119.123214 102 5045ft 123kts
10-Sep-18 09:46 34.213645 -119.083818 84 5049ft 120kts
10-Sep-18 09:47 34.215233 -119.043352 84 5052ft 121kts
10-Sep-18 09:48 34.216647 -119.002819 84 5055ft 121kts
10-Sep-18 09:49 34.218093 -118.962225 84 5057ft 121kts
10-Sep-18 09:50 34.219546 -118.921707 84 5013ft 122kts
10-Sep-18 09:51 34.221004 -118.880941 84 5015ft 121kts
10-Sep-18 09:52 34.222476 -118.840164 84 5018ft 121kts
10-Sep-18 09:53 34.226764 -118.800200 80 5020ft 121kts
10-Sep-18 09:54 34.229371 -118.759865 84 5022ft 121kts
10-Sep-18 09:55 34.230480 -118.723943 85 5024ft 121kts
10-Sep-18 09:56 34.226756 -118.684031 94 5025ft 122kts
10-Sep-18 09:57 34.223595 -118.643618 90 5028ft 122kts
10-Sep-18 09:58 34.222482 -118.603405 87 5031ft 121kts
10-Sep-18 09:59 34.224355 -118.563373 83 5034ft 121kts
10-Sep-18 10:00 34.225833 -118.523812 85 5036ft 121kts
10-Sep-18 10:01 34.221797 -118.484185 114 5034ft 124kts
10-Sep-18 10:02 34.210055 -118.446054 105 5039ft 123kts
10-Sep-18 10:03 34.198839 -118.407735 106 5043ft 124kts
10-Sep-18 10:04 34.186665 -118.369150 108 5047ft 124kts
10-Sep-18 10:05 34.178753 -118.344902 109 5050ft 124kts
10-Sep-18 10:06 34.166610 -118.306353 108 5051ft 124kts
10-Sep-18 10:07 34.154664 -118.268338 108 5053ft 124kts
10-Sep-18 10:08 34.142620 -118.229980 108 5055ft 124kts
10-Sep-18 10:09 34.131069 -118.193153 108 5057ft 124kts
10-Sep-18 10:10 34.119017 -118.154671 108 4996ft 127kts
10-Sep-18 10:11 34.106927 -118.115969 108 5001ft 124kts
10-Sep-18 10:12 34.095030 -118.077879 108 5003ft 124kts
10-Sep-18 10:13 34.083043 -118.039465 108 5006ft 124kts
10-Sep-18 10:14 34.071113 -118.001209 108 5009ft 124kts
10-Sep-18 10:15 34.059282 -117.963234 108 5012ft 124kts
10-Sep-18 10:16 34.047413 -117.925103 108 5015ft 124kts
10-Sep-18 10:17 34.035666 -117.887336 108 5019ft 124kts
10-Sep-18 10:18 34.023836 -117.849275 108 5023ft 124kts
10-Sep-18 10:19 34.002737 -117.825258 198 5009ft 125kts
10-Sep-18 10:20 33.971921 -117.839642 202 4801ft 137kts
10-Sep-18 10:21 33.938148 -117.856260 202 4249ft 143kts
10-Sep-18 10:22 33.902958 -117.871314 183 3890ft 114kts
10-Sep-18 10:23 33.875733 -117.870963 175 4055ft 121kts
10-Sep-18 10:24 33.846388 -117.873147 179 4048ft 131kts
10-Sep-18 10:25 33.809980 -117.873412 180 3990ft 132kts
10-Sep-18 10:26 33.774591 -117.878529 208 3992ft 132kts
10-Sep-18 10:27 33.744133 -117.901598 211 3996ft 132kts
10-Sep-18 10:28 33.712746 -117.925364 211 3579ft 142kts
10-Sep-18 10:29 33.680737 -117.951213 235 2594ft 142kts
10-Sep-18 10:30 33.684797 -117.994485 297 1994ft 119kts
10-Sep-18 10:31 33.708488 -118.018716 316 1794ft 111kts
10-Sep-18 10:32 33.728918 -118.044021 314 1770ft 107kts
10-Sep-18 10:33 33.749919 -118.068735 318 1776ft 107kts
10-Sep-18 10:34 33.771467 -118.094741 314 1211ft 112kts
10-Sep-18 10:35 33.788533 -118.116250 314 774ft 79kts
10-Sep-18 10:36 33.802686 -118.133244 316 331ft 80kts
10-Sep-18 10:37 33.814905 -118.148242 284 64ft 15kts
10-Sep-18 10:38 33.814941 -118.149010 270 64ft 0kts
10-Sep-18 10:39 33.814941 -118.149010 270 64ft 0kts
10-Sep-18 10:40 33.814048 -118.150987 189 64ft 11kts
10-Sep-18 10:41 33.812356 -118.152785 86 64ft 0kts
10-Sep-18 10:42 33.812356 -118.152785 86 64ft 0kts
10-Sep-18 10:43 33.812356 -118.152785 86 64ft 0kts
10-Sep-18 10:44 33.812356 -118.152785 86 64ft 0kts

Navigation Log

Ident Type
Flight plan parsing failed, navigation log unavailable